MSC Maya — 3FNF8 — position and weather

sailwx.info

Track history (hours):
 
Tides and Currents Weather Stations Pressure Air Temp Water Temp Dewpoint Dewpoint Depression Visibility Wind Speed Wind Dir Waves Ship Positions

MSC Maya

Last reported at 2015-Jun-22 19:18 UTC. Time now 2015-Jul-02 00:57 UTC.
Position S 33°53' E 018°26'.
Warning: this ship's position is 9 days out of date.

Length 242 m; draft 8 m.

Type: Cargo ship. MMSI: 351384000.

Date/timePositionNaut miles runAvg speedWind from/ knotsBaromVisibWave heightAir tempDewpointWater temp
2015-Jun-22 19:18S 33°53' E 018°26'2 2.8
2015-Jun-22 18:26S 33°52' E 018°23'47513.2
2015-Jun-21 06:21S 33°10' E 027°50'3215.2
2015-Jun-21 04:17S 32°51' E 028°20'20116.8
2015-Jun-20 16:17S 30°17' E 030°53'7 9.7
2015-Jun-20 15:33S 30°11' E 030°57'1010.2
2015-Jun-20 14:33S 30°03' E 031°03'1010.0
2015-Jun-20 13:33S 29°53' E 031°08'5 5.2
2015-Jun-20 12:33S 29°53' E 031°02'0 0.4
2015-Jun-20 11:33S 29°53' E 031°02'0 0.0
2015-Jun-20 10:33S 29°53' E 031°02'0 0.0
2015-Jun-20 09:33S 29°53' E 031°02'0 0.0
2015-Jun-20 08:33S 29°53' E 031°02'0 0.0
2015-Jun-20 07:33S 29°53' E 031°02'0 0.0
2015-Jun-20 06:33S 29°53' E 031°02'0 0.0
2015-Jun-20 05:33S 29°53' E 031°02'0 0.0
2015-Jun-20 04:32S 29°53' E 031°02'0 0.0
2015-Jun-20 03:32S 29°53' E 031°02'0 0.0
2015-Jun-20 02:31S 29°53' E 031°02'0 0.0
2015-Jun-20 01:33S 29°53' E 031°02'0 0.0
2015-Jun-20 00:33S 29°53' E 031°02'0 0.0
2015-Jun-19 23:33S 29°53' E 031°02'0 0.0
2015-Jun-19 22:33S 29°53' E 031°02'0 0.0
2015-Jun-19 21:33S 29°53' E 031°02'0 0.0
2015-Jun-19 20:32S 29°53' E 031°02'0 0.0
2015-Jun-19 19:32S 29°53' E 031°02'0 0.0
2015-Jun-19 18:32S 29°53' E 031°02'0 0.2
2015-Jun-19 17:33S 29°53' E 031°02'1 0.8
2015-Jun-19 16:31S 29°52' E 031°02'0 0.0
2015-Jun-19 15:31S 29°52' E 031°02'0 0.0
2015-Jun-19 14:31S 29°52' E 031°02'0 0.0
2015-Jun-19 13:31S 29°52' E 031°02'0 0.0
2015-Jun-19 12:31S 29°52' E 031°02'0 0.0
2015-Jun-19 11:31S 29°52' E 031°02'0 0.0
2015-Jun-19 10:31S 29°52' E 031°02'0 0.0
2015-Jun-19 09:31S 29°52' E 031°02'0 0.0
2015-Jun-19 08:31S 29°52' E 031°02'0 0.0
2015-Jun-19 07:32S 29°52' E 031°02'0 0.0
2015-Jun-19 06:32S 29°52' E 031°02'0 0.0
2015-Jun-19 05:32S 29°52' E 031°02'0 0.0
2015-Jun-19 04:32S 29°52' E 031°02'0 0.0
2015-Jun-19 03:32S 29°52' E 031°02'0 0.0
2015-Jun-19 02:29S 29°52' E 031°02'0 0.0
2015-Jun-19 01:32S 29°52' E 031°02'0 0.0
2015-Jun-19 00:32S 29°52' E 031°02'0 0.0
2015-Jun-18 23:32S 29°52' E 031°02'0 0.0
2015-Jun-18 22:32S 29°52' E 031°02'0 0.0
2015-Jun-18 21:29S 29°52' E 031°02'0 0.0
2015-Jun-18 20:32S 29°52' E 031°02'0 0.0
2015-Jun-18 19:29S 29°52' E 031°02'0 0.0
2015-Jun-18 18:32S 29°52' E 031°02'0 0.0
2015-Jun-18 17:32S 29°52' E 031°02'0 0.0
2015-Jun-18 16:32S 29°52' E 031°02'0 0.0
2015-Jun-18 15:32S 29°52' E 031°02'0 0.0
2015-Jun-18 14:32S 29°52' E 031°02'0 0.0
2015-Jun-18 13:32S 29°52' E 031°02'0 0.0
2015-Jun-18 12:32S 29°52' E 031°02'0 0.0
2015-Jun-18 11:32S 29°52' E 031°02'0 0.0
2015-Jun-18 10:32S 29°52' E 031°02'0 0.0
2015-Jun-18 09:32S 29°52' E 031°02'0 0.0
2015-Jun-18 08:32S 29°52' E 031°02'0 0.0
2015-Jun-18 07:32S 29°52' E 031°02'0 0.0
2015-Jun-18 06:32S 29°52' E 031°02'0 0.0
2015-Jun-18 05:32S 29°52' E 031°02'0 0.0
2015-Jun-18 04:32S 29°52' E 031°02'0 0.0
2015-Jun-18 03:29S 29°52' E 031°02'0 0.0
2015-Jun-18 02:32S 29°52' E 031°02'0 0.0
2015-Jun-18 01:32S 29°52' E 031°02'0 0.0
2015-Jun-18 00:32S 29°52' E 031°02'0 0.0
2015-Jun-17 23:32S 29°52' E 031°02'0 0.0
2015-Jun-17 22:32S 29°52' E 031°02'0 0.0
2015-Jun-17 21:32S 29°52' E 031°02'0 0.0
2015-Jun-17 20:29S 29°52' E 031°02'0 0.0
2015-Jun-17 19:32S 29°52' E 031°02'0 0.0
2015-Jun-17 18:32S 29°52' E 031°02'0 0.0
2015-Jun-17 17:32S 29°52' E 031°02'0 0.0
2015-Jun-17 16:32S 29°52' E 031°02'0 0.0
2015-Jun-17 15:32S 29°52' E 031°02'0 0.0
2015-Jun-17 14:32S 29°52' E 031°02'0 0.0
2015-Jun-17 13:32S 29°52' E 031°02'0 0.0
2015-Jun-17 12:32S 29°52' E 031°02'0 0.0
2015-Jun-17 11:32S 29°52' E 031°02'0 0.0
2015-Jun-17 10:29S 29°52' E 031°02'0 0.0
2015-Jun-17 09:32S 29°52' E 031°02'0 0.0
2015-Jun-17 08:32S 29°52' E 031°02'0 0.0
2015-Jun-17 07:32S 29°52' E 031°02'0 0.0
2015-Jun-17 06:29S 29°52' E 031°02'0 0.0
2015-Jun-17 05:32S 29°52' E 031°02'0 0.0
2015-Jun-17 04:32S 29°52' E 031°02'0 0.0
2015-Jun-17 03:32S 29°52' E 031°02'0 0.0
2015-Jun-17 02:32S 29°52' E 031°02'0 0.0
2015-Jun-17 01:32S 29°52' E 031°02'0 0.0
2015-Jun-17 00:32S 29°52' E 031°02'0 0.0
2015-Jun-16 23:32S 29°52' E 031°02'0 0.0
2015-Jun-16 22:32S 29°52' E 031°02'0 0.0
2015-Jun-16 21:32S 29°52' E 031°02'0 0.0
2015-Jun-16 20:32S 29°52' E 031°02'0 0.0
2015-Jun-16 19:32S 29°52' E 031°02'0 0.0
2015-Jun-16 18:32S 29°52' E 031°02'0 0.0
2015-Jun-16 17:32S 29°52' E 031°02'0 0.0
2015-Jun-16 16:32S 29°52' E 031°02'0 0.0
2015-Jun-16 15:32S 29°52' E 031°02'0 0.0
2015-Jun-16 14:32S 29°52' E 031°02'0 0.0
2015-Jun-16 13:29S 29°52' E 031°02'0 0.0
2015-Jun-16 12:32S 29°52' E 031°02'0 0.0
2015-Jun-16 11:32S 29°52' E 031°02'0 0.0
2015-Jun-16 10:32S 29°52' E 031°02'0 0.0
2015-Jun-16 09:32S 29°52' E 031°02'0 0.0
2015-Jun-16 08:32S 29°52' E 031°02'0 0.0
2015-Jun-16 07:32S 29°52' E 031°02'0 0.0
2015-Jun-16 06:32S 29°52' E 031°02'0 0.0
2015-Jun-16 05:29S 29°52' E 031°02'0 0.0
2015-Jun-16 04:32S 29°52' E 031°02'0 0.0
2015-Jun-16 03:33S 29°52' E 031°02'0 0.0
2015-Jun-16 02:32S 29°52' E 031°02'0 0.0
2015-Jun-16 01:32S 29°52' E 031°02'0 0.0
2015-Jun-16 00:32S 29°52' E 031°02'0 0.0
2015-Jun-15 23:32S 29°52' E 031°02'0 0.0
2015-Jun-15 22:32S 29°52' E 031°02'0 0.0
2015-Jun-15 21:32S 29°52' E 031°02'0 0.0
2015-Jun-15 20:32S 29°52' E 031°02'0 0.0
2015-Jun-15 19:32S 29°52' E 031°02'0 0.0
2015-Jun-15 18:32S 29°52' E 031°02'0 0.0
2015-Jun-15 17:32S 29°52' E 031°02'0 0.0
2015-Jun-15 16:32S 29°52' E 031°02'0 0.0
2015-Jun-15 15:32S 29°52' E 031°02'0 0.0
2015-Jun-15 14:32S 29°52' E 031°02'0 0.0
2015-Jun-15 13:32S 29°52' E 031°02'0 0.0
2015-Jun-15 12:32S 29°52' E 031°02'0 0.0
2015-Jun-15 11:32S 29°52' E 031°02'0 0.0
2015-Jun-15 10:31S 29°52' E 031°02'0 0.0
2015-Jun-15 09:31S 29°52' E 031°02'0 0.0
2015-Jun-15 08:31S 29°52' E 031°02'0 0.0
2015-Jun-15 07:16S 29°52' E 031°02'0 0.0
2015-Jun-15 06:16S 29°52' E 031°02'0 0.0
2015-Jun-15 05:31S 29°52' E 031°02'0 0.0
2015-Jun-15 04:31S 29°52' E 031°02'0 0.0
2015-Jun-15 03:31S 29°52' E 031°02'0 0.0
2015-Jun-15 02:31S 29°52' E 031°02'0 0.0
2015-Jun-15 01:31S 29°52' E 031°02'0 0.0
2015-Jun-15 00:31S 29°52' E 031°02'0 0.0
2015-Jun-14 23:31S 29°52' E 031°02'0 0.0
2015-Jun-14 22:31S 29°52' E 031°02'0 0.0
2015-Jun-14 21:31S 29°52' E 031°02'0 0.0
2015-Jun-14 20:31S 29°52' E 031°02'0 0.0
2015-Jun-14 19:31S 29°52' E 031°02'0 0.0
2015-Jun-14 18:31S 29°52' E 031°02'0 0.0
2015-Jun-14 17:31S 29°52' E 031°02'0 0.0
2015-Jun-14 16:31S 29°52' E 031°02'0 0.0
2015-Jun-14 15:31S 29°52' E 031°02'0 0.0
2015-Jun-14 14:31S 29°52' E 031°02'0 0.0
2015-Jun-14 13:31S 29°52' E 031°02'0 0.0
2015-Jun-14 12:31S 29°52' E 031°02'0 0.0
2015-Jun-14 11:31S 29°52' E 031°02'0 0.0
2015-Jun-14 10:31S 29°52' E 031°02'0 0.0
2015-Jun-14 09:31S 29°52' E 031°02'0 0.0
2015-Jun-14 08:31S 29°52' E 031°02'0 0.0
2015-Jun-14 07:31S 29°52' E 031°02'0 0.1
2015-Jun-14 06:33S 29°52' E 031°02'6 5.5
2015-Jun-14 05:33S 29°49' E 031°07'4 3.9
2015-Jun-14 04:34S 29°51' E 031°11'4 3.5
2015-Jun-14 03:33S 29°53' E 031°14'0 0.3
2015-Jun-14 02:33S 29°53' E 031°14'0 0.2
2015-Jun-14 01:33S 29°53' E 031°14'0 0.4
2015-Jun-14 00:33S 29°54' E 031°15'0 0.2
2015-Jun-13 23:33S 29°53' E 031°15'0 0.5
2015-Jun-13 22:33S 29°53' E 031°15'1 0.6
2015-Jun-13 21:33S 29°53' E 031°15'1 0.7
2015-Jun-13 20:33S 29°52' E 031°16'1 1.1
2015-Jun-13 19:33S 29°51' E 031°16'2 1.6
2015-Jun-13 18:33S 29°49' E 031°17'2 1.7
2015-Jun-13 17:33S 29°48' E 031°18'2 1.6
2015-Jun-13 16:33S 29°47' E 031°19'1 1.4
2015-Jun-13 15:33S 29°47' E 031°21'3 3.1
2015-Jun-13 14:33S 29°46' E 031°24'6 5.9
2015-Jun-13 13:34S 29°49' E 031°19'9 9.4
2015-Jun-13 12:33S 29°54' E 031°09'1616.5
2015-Jun-13 11:33S 30°08' E 030°59'1514.8
2015-Jun-13 10:33S 30°21' E 030°51'3115.4
2015-Jun-13 08:31S 30°48' E 030°32'  
Track history (hours):
 
Tides and Currents Weather Stations Pressure Air Temp Water Temp Dewpoint Dewpoint Depression Visibility Wind Speed Wind Dir Waves Ship Positions

MSC Maya

Last reported at 2015-Jun-22 19:18 UTC. Time now 2015-Jul-02 00:57 UTC.
Position S 33°53' E 018°26'.
Warning: this ship's position is 9 days out of date.

Length 242 m; draft 8 m.

Type: Cargo ship. MMSI: 351384000.

Date/timePositionNaut miles runAvg speedWind from/ knotsBaromVisibWave heightAir tempDewpointWater temp
2015-Jun-22 19:18S 33°53' E 018°26'2 2.8
2015-Jun-22 18:26S 33°52' E 018°23'47513.2
2015-Jun-21 06:21S 33°10' E 027°50'3215.2
2015-Jun-21 04:17S 32°51' E 028°20'20116.8
2015-Jun-20 16:17S 30°17' E 030°53'7 9.7
2015-Jun-20 15:33S 30°11' E 030°57'1010.2
2015-Jun-20 14:33S 30°03' E 031°03'1010.0
2015-Jun-20 13:33S 29°53' E 031°08'5 5.2
2015-Jun-20 12:33S 29°53' E 031°02'0 0.4
2015-Jun-20 11:33S 29°53' E 031°02'0 0.0
2015-Jun-20 10:33S 29°53' E 031°02'0 0.0
2015-Jun-20 09:33S 29°53' E 031°02'0 0.0
2015-Jun-20 08:33S 29°53' E 031°02'0 0.0
2015-Jun-20 07:33S 29°53' E 031°02'0 0.0
2015-Jun-20 06:33S 29°53' E 031°02'0 0.0
2015-Jun-20 05:33S 29°53' E 031°02'0 0.0
2015-Jun-20 04:32S 29°53' E 031°02'0 0.0
2015-Jun-20 03:32S 29°53' E 031°02'0 0.0
2015-Jun-20 02:31S 29°53' E 031°02'0 0.0
2015-Jun-20 01:33S 29°53' E 031°02'0 0.0
2015-Jun-20 00:33S 29°53' E 031°02'0 0.0
2015-Jun-19 23:33S 29°53' E 031°02'0 0.0
2015-Jun-19 22:33S 29°53' E 031°02'0 0.0
2015-Jun-19 21:33S 29°53' E 031°02'0 0.0
2015-Jun-19 20:32S 29°53' E 031°02'0 0.0
2015-Jun-19 19:32S 29°53' E 031°02'0 0.0
2015-Jun-19 18:32S 29°53' E 031°02'0 0.2
2015-Jun-19 17:33S 29°53' E 031°02'1 0.8
2015-Jun-19 16:31S 29°52' E 031°02'0 0.0
2015-Jun-19 15:31S 29°52' E 031°02'0 0.0
2015-Jun-19 14:31S 29°52' E 031°02'0 0.0
2015-Jun-19 13:31S 29°52' E 031°02'0 0.0
2015-Jun-19 12:31S 29°52' E 031°02'0 0.0
2015-Jun-19 11:31S 29°52' E 031°02'0 0.0
2015-Jun-19 10:31S 29°52' E 031°02'0 0.0
2015-Jun-19 09:31S 29°52' E 031°02'0 0.0
2015-Jun-19 08:31S 29°52' E 031°02'0 0.0
2015-Jun-19 07:32S 29°52' E 031°02'0 0.0
2015-Jun-19 06:32S 29°52' E 031°02'0 0.0
2015-Jun-19 05:32S 29°52' E 031°02'0 0.0
2015-Jun-19 04:32S 29°52' E 031°02'0 0.0
2015-Jun-19 03:32S 29°52' E 031°02'0 0.0
2015-Jun-19 02:29S 29°52' E 031°02'0 0.0
2015-Jun-19 01:32S 29°52' E 031°02'0 0.0
2015-Jun-19 00:32S 29°52' E 031°02'0 0.0
2015-Jun-18 23:32S 29°52' E 031°02'0 0.0
2015-Jun-18 22:32S 29°52' E 031°02'0 0.0
2015-Jun-18 21:29S 29°52' E 031°02'0 0.0
2015-Jun-18 20:32S 29°52' E 031°02'0 0.0
2015-Jun-18 19:29S 29°52' E 031°02'0 0.0
2015-Jun-18 18:32S 29°52' E 031°02'0 0.0
2015-Jun-18 17:32S 29°52' E 031°02'0 0.0
2015-Jun-18 16:32S 29°52' E 031°02'0 0.0
2015-Jun-18 15:32S 29°52' E 031°02'0 0.0
2015-Jun-18 14:32S 29°52' E 031°02'0 0.0
2015-Jun-18 13:32S 29°52' E 031°02'0 0.0
2015-Jun-18 12:32S 29°52' E 031°02'0 0.0
2015-Jun-18 11:32S 29°52' E 031°02'0 0.0
2015-Jun-18 10:32S 29°52' E 031°02'0 0.0
2015-Jun-18 09:32S 29°52' E 031°02'0 0.0
2015-Jun-18 08:32S 29°52' E 031°02'0 0.0
2015-Jun-18 07:32S 29°52' E 031°02'0 0.0
2015-Jun-18 06:32S 29°52' E 031°02'0 0.0
2015-Jun-18 05:32S 29°52' E 031°02'0 0.0
2015-Jun-18 04:32S 29°52' E 031°02'0 0.0
2015-Jun-18 03:29S 29°52' E 031°02'0 0.0
2015-Jun-18 02:32S 29°52' E 031°02'0 0.0
2015-Jun-18 01:32S 29°52' E 031°02'0 0.0
2015-Jun-18 00:32S 29°52' E 031°02'0 0.0
2015-Jun-17 23:32S 29°52' E 031°02'0 0.0
2015-Jun-17 22:32S 29°52' E 031°02'0 0.0
2015-Jun-17 21:32S 29°52' E 031°02'0 0.0
2015-Jun-17 20:29S 29°52' E 031°02'0 0.0
2015-Jun-17 19:32S 29°52' E 031°02'0 0.0
2015-Jun-17 18:32S 29°52' E 031°02'0 0.0
2015-Jun-17 17:32S 29°52' E 031°02'0 0.0
2015-Jun-17 16:32S 29°52' E 031°02'0 0.0
2015-Jun-17 15:32S 29°52' E 031°02'0 0.0
2015-Jun-17 14:32S 29°52' E 031°02'0 0.0
2015-Jun-17 13:32S 29°52' E 031°02'0 0.0
2015-Jun-17 12:32S 29°52' E 031°02'0 0.0
2015-Jun-17 11:32S 29°52' E 031°02'0 0.0
2015-Jun-17 10:29S 29°52' E 031°02'0 0.0
2015-Jun-17 09:32S 29°52' E 031°02'0 0.0
2015-Jun-17 08:32S 29°52' E 031°02'0 0.0
2015-Jun-17 07:32S 29°52' E 031°02'0 0.0
2015-Jun-17 06:29S 29°52' E 031°02'0 0.0
2015-Jun-17 05:32S 29°52' E 031°02'0 0.0
2015-Jun-17 04:32S 29°52' E 031°02'0 0.0
2015-Jun-17 03:32S 29°52' E 031°02'0 0.0
2015-Jun-17 02:32S 29°52' E 031°02'0 0.0
2015-Jun-17 01:32S 29°52' E 031°02'0 0.0
2015-Jun-17 00:32S 29°52' E 031°02'0 0.0
2015-Jun-16 23:32S 29°52' E 031°02'0 0.0
2015-Jun-16 22:32S 29°52' E 031°02'0 0.0
2015-Jun-16 21:32S 29°52' E 031°02'0 0.0
2015-Jun-16 20:32S 29°52' E 031°02'0 0.0
2015-Jun-16 19:32S 29°52' E 031°02'0 0.0
2015-Jun-16 18:32S 29°52' E 031°02'0 0.0
2015-Jun-16 17:32S 29°52' E 031°02'0 0.0
2015-Jun-16 16:32S 29°52' E 031°02'0 0.0
2015-Jun-16 15:32S 29°52' E 031°02'0 0.0
2015-Jun-16 14:32S 29°52' E 031°02'0 0.0
2015-Jun-16 13:29S 29°52' E 031°02'0 0.0
2015-Jun-16 12:32S 29°52' E 031°02'0 0.0
2015-Jun-16 11:32S 29°52' E 031°02'0 0.0
2015-Jun-16 10:32S 29°52' E 031°02'0 0.0
2015-Jun-16 09:32S 29°52' E 031°02'0 0.0
2015-Jun-16 08:32S 29°52' E 031°02'0 0.0
2015-Jun-16 07:32S 29°52' E 031°02'0 0.0
2015-Jun-16 06:32S 29°52' E 031°02'0 0.0
2015-Jun-16 05:29S 29°52' E 031°02'0 0.0
2015-Jun-16 04:32S 29°52' E 031°02'0 0.0
2015-Jun-16 03:33S 29°52' E 031°02'0 0.0
2015-Jun-16 02:32S 29°52' E 031°02'0 0.0
2015-Jun-16 01:32S 29°52' E 031°02'0 0.0
2015-Jun-16 00:32S 29°52' E 031°02'0 0.0
2015-Jun-15 23:32S 29°52' E 031°02'0 0.0
2015-Jun-15 22:32S 29°52' E 031°02'0 0.0
2015-Jun-15 21:32S 29°52' E 031°02'0 0.0
2015-Jun-15 20:32S 29°52' E 031°02'0 0.0
2015-Jun-15 19:32S 29°52' E 031°02'0 0.0
2015-Jun-15 18:32S 29°52' E 031°02'0 0.0
2015-Jun-15 17:32S 29°52' E 031°02'0 0.0
2015-Jun-15 16:32S 29°52' E 031°02'0 0.0
2015-Jun-15 15:32S 29°52' E 031°02'0 0.0
2015-Jun-15 14:32S 29°52' E 031°02'0 0.0
2015-Jun-15 13:32S 29°52' E 031°02'0 0.0
2015-Jun-15 12:32S 29°52' E 031°02'0 0.0
2015-Jun-15 11:32S 29°52' E 031°02'0 0.0
2015-Jun-15 10:31S 29°52' E 031°02'0 0.0
2015-Jun-15 09:31S 29°52' E 031°02'0 0.0
2015-Jun-15 08:31S 29°52' E 031°02'0 0.0
2015-Jun-15 07:16S 29°52' E 031°02'0 0.0
2015-Jun-15 06:16S 29°52' E 031°02'0 0.0
2015-Jun-15 05:31S 29°52' E 031°02'0 0.0
2015-Jun-15 04:31S 29°52' E 031°02'0 0.0
2015-Jun-15 03:31S 29°52' E 031°02'0 0.0
2015-Jun-15 02:31S 29°52' E 031°02'0 0.0
2015-Jun-15 01:31S 29°52' E 031°02'0 0.0
2015-Jun-15 00:31S 29°52' E 031°02'0 0.0
2015-Jun-14 23:31S 29°52' E 031°02'0 0.0
2015-Jun-14 22:31S 29°52' E 031°02'0 0.0
2015-Jun-14 21:31S 29°52' E 031°02'0 0.0
2015-Jun-14 20:31S 29°52' E 031°02'0 0.0
2015-Jun-14 19:31S 29°52' E 031°02'0 0.0
2015-Jun-14 18:31S 29°52' E 031°02'0 0.0
2015-Jun-14 17:31S 29°52' E 031°02'0 0.0
2015-Jun-14 16:31S 29°52' E 031°02'0 0.0
2015-Jun-14 15:31S 29°52' E 031°02'0 0.0
2015-Jun-14 14:31S 29°52' E 031°02'0 0.0
2015-Jun-14 13:31S 29°52' E 031°02'0 0.0
2015-Jun-14 12:31S 29°52' E 031°02'0 0.0
2015-Jun-14 11:31S 29°52' E 031°02'0 0.0
2015-Jun-14 10:31S 29°52' E 031°02'0 0.0
2015-Jun-14 09:31S 29°52' E 031°02'0 0.0
2015-Jun-14 08:31S 29°52' E 031°02'0 0.0
2015-Jun-14 07:31S 29°52' E 031°02'0 0.1
2015-Jun-14 06:33S 29°52' E 031°02'6 5.5
2015-Jun-14 05:33S 29°49' E 031°07'4 3.9
2015-Jun-14 04:34S 29°51' E 031°11'4 3.5
2015-Jun-14 03:33S 29°53' E 031°14'0 0.3
2015-Jun-14 02:33S 29°53' E 031°14'0 0.2
2015-Jun-14 01:33S 29°53' E 031°14'0 0.4
2015-Jun-14 00:33S 29°54' E 031°15'0 0.2
2015-Jun-13 23:33S 29°53' E 031°15'0 0.5
2015-Jun-13 22:33S 29°53' E 031°15'1 0.6
2015-Jun-13 21:33S 29°53' E 031°15'1 0.7
2015-Jun-13 20:33S 29°52' E 031°16'1 1.1
2015-Jun-13 19:33S 29°51' E 031°16'2 1.6
2015-Jun-13 18:33S 29°49' E 031°17'2 1.7
2015-Jun-13 17:33S 29°48' E 031°18'2 1.6
2015-Jun-13 16:33S 29°47' E 031°19'1 1.4
2015-Jun-13 15:33S 29°47' E 031°21'3 3.1
2015-Jun-13 14:33S 29°46' E 031°24'6 5.9
2015-Jun-13 13:34S 29°49' E 031°19'9 9.4
2015-Jun-13 12:33S 29°54' E 031°09'1616.5
2015-Jun-13 11:33S 30°08' E 030°59'1514.8
2015-Jun-13 10:33S 30°21' E 030°51'3115.4
2015-Jun-13 08:31S 30°48' E 030°32'  

Dump ship's entire track history